sensor_id;sensor_type;location;lat;lon;timestamp;P1;durP1;ratioP1;P2;durP2;ratioP2
9986;SDS011;5033;46.310;11.214;2022-08-21T00:02:01;0.75;;;0.68;;
9986;SDS011;5033;46.310;11.214;2022-08-21T00:04:33;1.90;;;0.77;;
9986;SDS011;5033;46.310;11.214;2022-08-21T00:07:01;0.60;;;0.60;;
9986;SDS011;5033;46.310;11.214;2022-08-21T00:09:28;0.47;;;0.47;;
9986;SDS011;5033;46.310;11.214;2022-08-21T00:11:58;0.60;;;0.60;;
9986;SDS011;5033;46.310;11.214;2022-08-21T00:14:27;1.42;;;0.70;;
9986;SDS011;5033;46.310;11.214;2022-08-21T00:16:54;0.60;;;0.60;;
9986;SDS011;5033;46.310;11.214;2022-08-21T00:19:21;0.50;;;0.50;;
9986;SDS011;5033;46.310;11.214;2022-08-21T00:21:51;0.60;;;0.60;;
9986;SDS011;5033;46.310;11.214;2022-08-21T00:24:18;0.50;;;0.50;;
9986;SDS011;5033;46.310;11.214;2022-08-21T00:26:50;0.40;;;0.40;;
9986;SDS011;5033;46.310;11.214;2022-08-21T00:29:17;0.60;;;0.60;;
9986;SDS011;5033;46.310;11.214;2022-08-21T00:31:45;0.60;;;0.60;;
9986;SDS011;5033;46.310;11.214;2022-08-21T00:34:12;0.60;;;0.60;;
9986;SDS011;5033;46.310;11.214;2022-08-21T00:36:40;1.98;;;0.50;;
9986;SDS011;5033;46.310;11.214;2022-08-21T00:39:08;0.57;;;0.57;;
9986;SDS011;5033;46.310;11.214;2022-08-21T00:41:36;0.50;;;0.50;;
9986;SDS011;5033;46.310;11.214;2022-08-21T00:44:05;0.50;;;0.50;;
9986;SDS011;5033;46.310;11.214;2022-08-21T00:46:36;0.77;;;0.70;;
9986;SDS011;5033;46.310;11.214;2022-08-21T00:49:05;0.70;;;0.70;;
9986;SDS011;5033;46.310;11.214;2022-08-21T00:51:35;0.60;;;0.60;;
9986;SDS011;5033;46.310;11.214;2022-08-21T00:54:05;0.70;;;0.70;;
9986;SDS011;5033;46.310;11.214;2022-08-21T00:56:34;0.65;;;0.65;;
9986;SDS011;5033;46.310;11.214;2022-08-21T00:59:02;0.70;;;0.70;;
9986;SDS011;5033;46.310;11.214;2022-08-21T01:01:30;0.70;;;0.70;;
9986;SDS011;5033;46.310;11.214;2022-08-21T01:03:57;0.73;;;0.73;;
9986;SDS011;5033;46.310;11.214;2022-08-21T01:06:24;0.60;;;0.60;;
9986;SDS011;5033;46.310;11.214;2022-08-21T01:08:51;0.80;;;0.80;;
9986;SDS011;5033;46.310;11.214;2022-08-21T01:11:19;0.63;;;0.63;;
9986;SDS011;5033;46.310;11.214;2022-08-21T01:13:48;0.75;;;0.73;;
9986;SDS011;5033;46.310;11.214;2022-08-21T01:16:17;0.77;;;0.77;;
9986;SDS011;5033;46.310;11.214;2022-08-21T01:18:46;0.68;;;0.68;;
9986;SDS011;5033;46.310;11.214;2022-08-21T01:21:16;0.45;;;0.45;;
9986;SDS011;5033;46.310;11.214;2022-08-21T01:23:46;0.68;;;0.68;;
9986;SDS011;5033;46.310;11.214;2022-08-21T01:26:17;0.60;;;0.60;;
9986;SDS011;5033;46.310;11.214;2022-08-21T01:28:47;0.60;;;0.60;;
9986;SDS011;5033;46.310;11.214;2022-08-21T01:31:21;0.52;;;0.52;;
9986;SDS011;5033;46.310;11.214;2022-08-21T01:33:51;0.68;;;0.68;;
9986;SDS011;5033;46.310;11.214;2022-08-21T01:36:20;0.50;;;0.50;;
9986;SDS011;5033;46.310;11.214;2022-08-21T01:38:47;0.77;;;0.77;;
9986;SDS011;5033;46.310;11.214;2022-08-21T01:41:15;0.60;;;0.60;;
9986;SDS011;5033;46.310;11.214;2022-08-21T01:43:42;0.70;;;0.70;;
9986;SDS011;5033;46.310;11.214;2022-08-21T01:46:10;0.60;;;0.60;;
9986;SDS011;5033;46.310;11.214;2022-08-21T01:48:38;0.40;;;0.40;;
9986;SDS011;5033;46.310;11.214;2022-08-21T01:51:05;0.60;;;0.60;;
9986;SDS011;5033;46.310;11.214;2022-08-21T01:53:34;0.57;;;0.57;;
9986;SDS011;5033;46.310;11.214;2022-08-21T01:56:03;0.70;;;0.70;;
9986;SDS011;5033;46.310;11.214;2022-08-21T01:58:32;0.63;;;0.63;;
9986;SDS011;5033;46.310;11.214;2022-08-21T02:00:59;0.60;;;0.60;;
9986;SDS011;5033;46.310;11.214;2022-08-21T02:03:27;0.55;;;0.55;;
9986;SDS011;5033;46.310;11.214;2022-08-21T02:05:54;0.88;;;0.60;;
9986;SDS011;5033;46.310;11.214;2022-08-21T02:08:21;0.60;;;0.60;;
9986;SDS011;5033;46.310;11.214;2022-08-21T02:10:51;1.15;;;0.55;;
9986;SDS011;5033;46.310;11.214;2022-08-21T02:13:18;0.60;;;0.60;;
9986;SDS011;5033;46.310;11.214;2022-08-21T02:15:46;0.60;;;0.60;;
9986;SDS011;5033;46.310;11.214;2022-08-21T02:18:13;0.60;;;0.60;;
9986;SDS011;5033;46.310;11.214;2022-08-21T02:20:42;0.60;;;0.60;;
9986;SDS011;5033;46.310;11.214;2022-08-21T02:23:12;0.55;;;0.55;;
9986;SDS011;5033;46.310;11.214;2022-08-21T02:25:39;0.75;;;0.75;;
9986;SDS011;5033;46.310;11.214;2022-08-21T02:28:11;0.50;;;0.50;;
9986;SDS011;5033;46.310;11.214;2022-08-21T02:30:40;0.60;;;0.60;;
9986;SDS011;5033;46.310;11.214;2022-08-21T02:33:09;0.60;;;0.60;;
9986;SDS011;5033;46.310;11.214;2022-08-21T02:35:37;0.70;;;0.70;;
9986;SDS011;5033;46.310;11.214;2022-08-21T02:38:09;0.50;;;0.50;;
9986;SDS011;5033;46.310;11.214;2022-08-21T02:40:39;0.70;;;0.70;;
9986;SDS011;5033;46.310;11.214;2022-08-21T02:43:10;0.60;;;0.60;;
9986;SDS011;5033;46.310;11.214;2022-08-21T02:45:37;0.73;;;0.73;;
9986;SDS011;5033;46.310;11.214;2022-08-21T02:48:06;0.65;;;0.65;;
9986;SDS011;5033;46.310;11.214;2022-08-21T02:50:36;0.47;;;0.47;;
9986;SDS011;5033;46.310;11.214;2022-08-21T02:53:09;0.70;;;0.70;;
9986;SDS011;5033;46.310;11.214;2022-08-21T02:55:42;0.50;;;0.50;;
9986;SDS011;5033;46.310;11.214;2022-08-21T02:58:11;0.60;;;0.60;;
9986;SDS011;5033;46.310;11.214;2022-08-21T03:00:40;0.63;;;0.63;;
9986;SDS011;5033;46.310;11.214;2022-08-21T03:03:08;1.13;;;1.00;;
9986;SDS011;5033;46.310;11.214;2022-08-21T03:05:37;0.93;;;0.90;;
9986;SDS011;5033;46.310;11.214;2022-08-21T03:08:05;0.60;;;0.60;;
9986;SDS011;5033;46.310;11.214;2022-08-21T03:10:35;0.50;;;0.50;;
9986;SDS011;5033;46.310;11.214;2022-08-21T03:13:04;0.50;;;0.50;;
9986;SDS011;5033;46.310;11.214;2022-08-21T03:15:33;0.50;;;0.50;;
9986;SDS011;5033;46.310;11.214;2022-08-21T03:18:02;0.73;;;0.73;;
9986;SDS011;5033;46.310;11.214;2022-08-21T03:20:32;0.70;;;0.70;;
9986;SDS011;5033;46.310;11.214;2022-08-21T03:23:02;0.40;;;0.40;;
9986;SDS011;5033;46.310;11.214;2022-08-21T03:25:32;0.60;;;0.60;;
9986;SDS011;5033;46.310;11.214;2022-08-21T03:28:00;0.60;;;0.60;;
9986;SDS011;5033;46.310;11.214;2022-08-21T03:30:29;0.70;;;0.70;;
9986;SDS011;5033;46.310;11.214;2022-08-21T03:32:57;0.63;;;0.63;;
9986;SDS011;5033;46.310;11.214;2022-08-21T03:35:25;0.73;;;0.73;;
9986;SDS011;5033;46.310;11.214;2022-08-21T03:37:52;1.00;;;0.70;;
9986;SDS011;5033;46.310;11.214;2022-08-21T03:40:21;0.70;;;0.70;;
9986;SDS011;5033;46.310;11.214;2022-08-21T03:42:49;0.70;;;0.70;;
9986;SDS011;5033;46.310;11.214;2022-08-21T03:45:17;0.60;;;0.60;;
9986;SDS011;5033;46.310;11.214;2022-08-21T03:47:52;0.52;;;0.52;;
9986;SDS011;5033;46.310;11.214;2022-08-21T03:50:24;0.60;;;0.60;;
9986;SDS011;5033;46.310;11.214;2022-08-21T03:52:52;0.60;;;0.50;;
9986;SDS011;5033;46.310;11.214;2022-08-21T03:55:19;1.25;;;0.75;;
9986;SDS011;5033;46.310;11.214;2022-08-21T03:57:47;0.50;;;0.50;;
9986;SDS011;5033;46.310;11.214;2022-08-21T04:00:14;0.98;;;0.80;;
9986;SDS011;5033;46.310;11.214;2022-08-21T04:02:44;0.68;;;0.68;;
9986;SDS011;5033;46.310;11.214;2022-08-21T04:05:12;0.73;;;0.73;;
9986;SDS011;5033;46.310;11.214;2022-08-21T04:07:53;0.70;;;0.70;;
9986;SDS011;5033;46.310;11.214;2022-08-21T04:10:21;0.60;;;0.60;;
9986;SDS011;5033;46.310;11.214;2022-08-21T04:12:50;0.70;;;0.70;;
9986;SDS011;5033;46.310;11.214;2022-08-21T04:15:18;0.60;;;0.60;;
9986;SDS011;5033;46.310;11.214;2022-08-21T04:17:45;0.82;;;0.82;;
9986;SDS011;5033;46.310;11.214;2022-08-21T04:20:13;0.70;;;0.70;;
9986;SDS011;5033;46.310;11.214;2022-08-21T04:22:40;0.95;;;0.63;;
9986;SDS011;5033;46.310;11.214;2022-08-21T04:25:11;0.70;;;0.70;;
9986;SDS011;5033;46.310;11.214;2022-08-21T04:27:39;0.60;;;0.60;;
9986;SDS011;5033;46.310;11.214;2022-08-21T04:30:06;0.60;;;0.60;;
9986;SDS011;5033;46.310;11.214;2022-08-21T04:32:35;0.68;;;0.68;;
9986;SDS011;5033;46.310;11.214;2022-08-21T04:35:03;0.98;;;0.80;;
9986;SDS011;5033;46.310;11.214;2022-08-21T04:37:32;0.52;;;0.52;;
9986;SDS011;5033;46.310;11.214;2022-08-21T04:40:00;1.55;;;0.75;;
9986;SDS011;5033;46.310;11.214;2022-08-21T04:42:28;0.60;;;0.60;;
9986;SDS011;5033;46.310;11.214;2022-08-21T04:44:56;0.60;;;0.60;;
9986;SDS011;5033;46.310;11.214;2022-08-21T04:47:23;1.67;;;0.70;;
9986;SDS011;5033;46.310;11.214;2022-08-21T04:49:50;0.70;;;0.70;;
9986;SDS011;5033;46.310;11.214;2022-08-21T04:52:18;0.90;;;0.90;;
9986;SDS011;5033;46.310;11.214;2022-08-21T04:54:48;0.70;;;0.70;;
9986;SDS011;5033;46.310;11.214;2022-08-21T04:57:17;0.57;;;0.57;;
9986;SDS011;5033;46.310;11.214;2022-08-21T04:59:47;0.63;;;0.63;;
9986;SDS011;5033;46.310;11.214;2022-08-21T05:02:16;1.95;;;0.70;;
9986;SDS011;5033;46.310;11.214;2022-08-21T05:04:46;0.70;;;0.70;;
9986;SDS011;5033;46.310;11.214;2022-08-21T05:07:19;0.60;;;0.55;;
9986;SDS011;5033;46.310;11.214;2022-08-21T05:09:50;1.38;;;0.70;;
9986;SDS011;5033;46.310;11.214;2022-08-21T05:12:17;0.60;;;0.60;;
9986;SDS011;5033;46.310;11.214;2022-08-21T05:14:46;0.73;;;0.73;;
9986;SDS011;5033;46.310;11.214;2022-08-21T05:17:14;0.60;;;0.60;;
9986;SDS011;5033;46.310;11.214;2022-08-21T05:19:41;0.80;;;0.80;;
9986;SDS011;5033;46.310;11.214;2022-08-21T05:22:08;0.60;;;0.60;;
9986;SDS011;5033;46.310;11.214;2022-08-21T05:24:35;0.60;;;0.60;;
9986;SDS011;5033;46.310;11.214;2022-08-21T05:27:03;0.60;;;0.60;;
9986;SDS011;5033;46.310;11.214;2022-08-21T05:29:32;0.55;;;0.55;;
9986;SDS011;5033;46.310;11.214;2022-08-21T05:32:01;0.60;;;0.60;;
9986;SDS011;5033;46.310;11.214;2022-08-21T05:34:34;0.77;;;0.60;;
9986;SDS011;5033;46.310;11.214;2022-08-21T05:37:02;0.70;;;0.70;;
9986;SDS011;5033;46.310;11.214;2022-08-21T05:39:29;0.70;;;0.70;;
9986;SDS011;5033;46.310;11.214;2022-08-21T05:41:56;0.60;;;0.60;;
9986;SDS011;5033;46.310;11.214;2022-08-21T05:44:23;1.13;;;0.70;;
9986;SDS011;5033;46.310;11.214;2022-08-21T05:46:50;0.70;;;0.70;;
9986;SDS011;5033;46.310;11.214;2022-08-21T05:49:18;0.70;;;0.70;;
9986;SDS011;5033;46.310;11.214;2022-08-21T05:51:45;0.70;;;0.70;;
9986;SDS011;5033;46.310;11.214;2022-08-21T05:54:12;0.63;;;0.63;;
9986;SDS011;5033;46.310;11.214;2022-08-21T05:56:40;0.82;;;0.60;;
9986;SDS011;5033;46.310;11.214;2022-08-21T05:59:09;0.70;;;0.70;;
9986;SDS011;5033;46.310;11.214;2022-08-21T06:01:38;0.80;;;0.80;;
9986;SDS011;5033;46.310;11.214;2022-08-21T06:04:06;0.55;;;0.55;;
9986;SDS011;5033;46.310;11.214;2022-08-21T06:06:34;0.60;;;0.60;;
9986;SDS011;5033;46.310;11.214;2022-08-21T06:09:02;0.70;;;0.70;;
9986;SDS011;5033;46.310;11.214;2022-08-21T06:11:29;1.60;;;0.65;;
9986;SDS011;5033;46.310;11.214;2022-08-21T06:13:57;1.08;;;0.98;;
9986;SDS011;5033;46.310;11.214;2022-08-21T06:16:25;0.65;;;0.65;;
9986;SDS011;5033;46.310;11.214;2022-08-21T06:18:54;0.80;;;0.80;;
9986;SDS011;5033;46.310;11.214;2022-08-21T06:21:21;0.60;;;0.60;;
9986;SDS011;5033;46.310;11.214;2022-08-21T06:23:49;0.77;;;0.77;;
9986;SDS011;5033;46.310;11.214;2022-08-21T06:26:16;0.57;;;0.57;;
9986;SDS011;5033;46.310;11.214;2022-08-21T06:28:43;0.70;;;0.70;;
9986;SDS011;5033;46.310;11.214;2022-08-21T06:31:11;0.77;;;0.77;;
9986;SDS011;5033;46.310;11.214;2022-08-21T06:33:40;1.40;;;0.85;;
9986;SDS011;5033;46.310;11.214;2022-08-21T06:36:07;0.85;;;0.77;;
9986;SDS011;5033;46.310;11.214;2022-08-21T06:38:34;0.70;;;0.65;;
9986;SDS011;5033;46.310;11.214;2022-08-21T06:41:03;0.80;;;0.80;;
9986;SDS011;5033;46.310;11.214;2022-08-21T06:43:32;0.80;;;0.80;;
9986;SDS011;5033;46.310;11.214;2022-08-21T06:45:59;0.88;;;0.70;;
9986;SDS011;5033;46.310;11.214;2022-08-21T06:48:26;1.35;;;0.70;;
9986;SDS011;5033;46.310;11.214;2022-08-21T06:50:54;1.55;;;0.60;;
9986;SDS011;5033;46.310;11.214;2022-08-21T06:53:21;0.93;;;0.88;;
9986;SDS011;5033;46.310;11.214;2022-08-21T06:55:49;1.42;;;0.93;;
9986;SDS011;5033;46.310;11.214;2022-08-21T06:58:17;0.68;;;0.68;;
9986;SDS011;5033;46.310;11.214;2022-08-21T07:00:45;0.93;;;0.65;;
9986;SDS011;5033;46.310;11.214;2022-08-21T07:03:18;0.98;;;0.70;;
9986;SDS011;5033;46.310;11.214;2022-08-21T07:05:47;0.68;;;0.68;;
9986;SDS011;5033;46.310;11.214;2022-08-21T07:08:14;0.85;;;0.68;;
9986;SDS011;5033;46.310;11.214;2022-08-21T07:10:42;0.80;;;0.80;;
9986;SDS011;5033;46.310;11.214;2022-08-21T07:13:09;0.60;;;0.60;;
9986;SDS011;5033;46.310;11.214;2022-08-21T07:15:37;0.75;;;0.60;;
9986;SDS011;5033;46.310;11.214;2022-08-21T07:18:05;0.60;;;0.60;;
9986;SDS011;5033;46.310;11.214;2022-08-21T07:20:33;0.70;;;0.70;;
9986;SDS011;5033;46.310;11.214;2022-08-21T07:23:01;0.63;;;0.60;;
9986;SDS011;5033;46.310;11.214;2022-08-21T07:25:31;0.60;;;0.60;;
9986;SDS011;5033;46.310;11.214;2022-08-21T07:27:58;0.80;;;0.80;;
9986;SDS011;5033;46.310;11.214;2022-08-21T07:30:25;0.60;;;0.60;;
9986;SDS011;5033;46.310;11.214;2022-08-21T07:32:54;0.60;;;0.60;;
9986;SDS011;5033;46.310;11.214;2022-08-21T07:35:22;0.77;;;0.77;;
9986;SDS011;5033;46.310;11.214;2022-08-21T07:37:49;0.57;;;0.57;;
9986;SDS011;5033;46.310;11.214;2022-08-21T07:40:17;0.50;;;0.50;;
9986;SDS011;5033;46.310;11.214;2022-08-21T07:42:46;0.60;;;0.60;;
9986;SDS011;5033;46.310;11.214;2022-08-21T07:45:17;0.93;;;0.70;;
9986;SDS011;5033;46.310;11.214;2022-08-21T07:47:45;0.77;;;0.77;;
9986;SDS011;5033;46.310;11.214;2022-08-21T07:50:14;0.50;;;0.50;;
9986;SDS011;5033;46.310;11.214;2022-08-21T07:52:41;0.60;;;0.60;;
9986;SDS011;5033;46.310;11.214;2022-08-21T07:55:10;0.60;;;0.60;;
9986;SDS011;5033;46.310;11.214;2022-08-21T07:57:39;0.60;;;0.60;;
9986;SDS011;5033;46.310;11.214;2022-08-21T08:00:07;0.55;;;0.55;;
9986;SDS011;5033;46.310;11.214;2022-08-21T08:02:37;0.82;;;0.70;;
9986;SDS011;5033;46.310;11.214;2022-08-21T08:05:05;0.73;;;0.63;;
9986;SDS011;5033;46.310;11.214;2022-08-21T08:07:36;0.70;;;0.70;;
9986;SDS011;5033;46.310;11.214;2022-08-21T08:10:04;0.80;;;0.60;;
9986;SDS011;5033;46.310;11.214;2022-08-21T08:12:33;0.70;;;0.70;;
9986;SDS011;5033;46.310;11.214;2022-08-21T08:15:01;0.90;;;0.60;;
9986;SDS011;5033;46.310;11.214;2022-08-21T08:17:30;0.80;;;0.80;;
9986;SDS011;5033;46.310;11.214;2022-08-21T08:19:58;0.70;;;0.70;;
9986;SDS011;5033;46.310;11.214;2022-08-21T08:22:25;2.95;;;0.90;;
9986;SDS011;5033;46.310;11.214;2022-08-21T08:24:54;0.77;;;0.70;;
9986;SDS011;5033;46.310;11.214;2022-08-21T08:27:22;0.75;;;0.75;;
9986;SDS011;5033;46.310;11.214;2022-08-21T08:29:49;1.63;;;0.70;;
9986;SDS011;5033;46.310;11.214;2022-08-21T08:32:16;0.65;;;0.65;;
9986;SDS011;5033;46.310;11.214;2022-08-21T08:34:44;0.57;;;0.55;;
9986;SDS011;5033;46.310;11.214;2022-08-21T08:37:12;0.55;;;0.55;;
9986;SDS011;5033;46.310;11.214;2022-08-21T08:39:39;0.70;;;0.70;;
9986;SDS011;5033;46.310;11.214;2022-08-21T08:42:08;0.70;;;0.70;;
9986;SDS011;5033;46.310;11.214;2022-08-21T08:44:39;0.63;;;0.60;;
9986;SDS011;5033;46.310;11.214;2022-08-21T08:47:06;0.60;;;0.60;;
9986;SDS011;5033;46.310;11.214;2022-08-21T08:49:36;0.65;;;0.65;;
9986;SDS011;5033;46.310;11.214;2022-08-21T08:52:07;1.10;;;0.73;;
9986;SDS011;5033;46.310;11.214;2022-08-21T08:54:46;0.70;;;0.70;;
9986;SDS011;5033;46.310;11.214;2022-08-21T08:57:19;0.70;;;0.70;;
9986;SDS011;5033;46.310;11.214;2022-08-21T08:59:51;1.05;;;0.60;;
9986;SDS011;5033;46.310;11.214;2022-08-21T09:02:20;0.60;;;0.60;;
9986;SDS011;5033;46.310;11.214;2022-08-21T09:04:48;0.55;;;0.55;;
9986;SDS011;5033;46.310;11.214;2022-08-21T09:07:19;0.65;;;0.65;;
9986;SDS011;5033;46.310;11.214;2022-08-21T09:10:00;0.60;;;0.60;;
9986;SDS011;5033;46.310;11.214;2022-08-21T09:12:36;0.80;;;0.80;;
9986;SDS011;5033;46.310;11.214;2022-08-21T09:15:13;0.60;;;0.60;;
9986;SDS011;5033;46.310;11.214;2022-08-21T09:17:55;0.50;;;0.50;;
9986;SDS011;5033;46.310;11.214;2022-08-21T09:20:36;0.60;;;0.60;;
9986;SDS011;5033;46.310;11.214;2022-08-21T09:23:09;0.82;;;0.60;;
9986;SDS011;5033;46.310;11.214;2022-08-21T09:25:46;0.57;;;0.57;;
9986;SDS011;5033;46.310;11.214;2022-08-21T09:28:23;1.15;;;0.57;;
9986;SDS011;5033;46.310;11.214;2022-08-21T09:30:51;0.60;;;0.55;;
9986;SDS011;5033;46.310;11.214;2022-08-21T09:33:23;1.15;;;0.60;;
9986;SDS011;5033;46.310;11.214;2022-08-21T09:35:51;0.50;;;0.50;;
9986;SDS011;5033;46.310;11.214;2022-08-21T09:38:24;0.50;;;0.50;;
9986;SDS011;5033;46.310;11.214;2022-08-21T09:40:56;0.60;;;0.60;;
9986;SDS011;5033;46.310;11.214;2022-08-21T09:43:26;0.60;;;0.60;;
9986;SDS011;5033;46.310;11.214;2022-08-21T09:46:02;0.60;;;0.60;;
9986;SDS011;5033;46.310;11.214;2022-08-21T09:48:38;0.50;;;0.50;;
9986;SDS011;5033;46.310;11.214;2022-08-21T09:51:08;0.60;;;0.60;;
9986;SDS011;5033;46.310;11.214;2022-08-21T09:53:39;0.52;;;0.52;;
9986;SDS011;5033;46.310;11.214;2022-08-21T09:56:16;0.60;;;0.60;;
9986;SDS011;5033;46.310;11.214;2022-08-21T09:59:16;0.70;;;0.50;;
9986;SDS011;5033;46.310;11.214;2022-08-21T10:01:46;0.60;;;0.60;;
9986;SDS011;5033;46.310;11.214;2022-08-21T10:04:15;0.40;;;0.40;;
9986;SDS011;5033;46.310;11.214;2022-08-21T10:06:47;0.57;;;0.57;;
9986;SDS011;5033;46.310;11.214;2022-08-21T10:09:15;0.50;;;0.50;;
9986;SDS011;5033;46.310;11.214;2022-08-21T10:11:45;0.57;;;0.50;;
9986;SDS011;5033;46.310;11.214;2022-08-21T10:14:30;0.60;;;0.60;;
9986;SDS011;5033;46.310;11.214;2022-08-21T10:17:11;0.50;;;0.50;;
9986;SDS011;5033;46.310;11.214;2022-08-21T10:19:46;1.30;;;0.60;;
9986;SDS011;5033;46.310;11.214;2022-08-21T10:22:24;0.60;;;0.60;;
9986;SDS011;5033;46.310;11.214;2022-08-21T10:25:02;1.15;;;0.50;;
9986;SDS011;5033;46.310;11.214;2022-08-21T10:27:39;0.45;;;0.45;;
9986;SDS011;5033;46.310;11.214;2022-08-21T10:30:15;1.05;;;0.60;;
9986;SDS011;5033;46.310;11.214;2022-08-21T10:32:55;0.60;;;0.60;;
9986;SDS011;5033;46.310;11.214;2022-08-21T10:35:31;1.85;;;0.60;;
9986;SDS011;5033;46.310;11.214;2022-08-21T10:38:10;0.50;;;0.50;;
9986;SDS011;5033;46.310;11.214;2022-08-21T10:41:02;0.52;;;0.52;;
9986;SDS011;5033;46.310;11.214;2022-08-21T10:43:37;0.40;;;0.40;;
9986;SDS011;5033;46.310;11.214;2022-08-21T10:46:15;0.43;;;0.40;;
9986;SDS011;5033;46.310;11.214;2022-08-21T10:48:50;0.60;;;0.60;;
9986;SDS011;5033;46.310;11.214;2022-08-21T10:51:23;0.30;;;0.30;;
9986;SDS011;5033;46.310;11.214;2022-08-21T10:53:59;0.30;;;0.30;;
9986;SDS011;5033;46.310;11.214;2022-08-21T10:56:33;0.35;;;0.35;;
9986;SDS011;5033;46.310;11.214;2022-08-21T10:59:07;0.43;;;0.43;;
9986;SDS011;5033;46.310;11.214;2022-08-21T11:01:54;0.35;;;0.35;;
9986;SDS011;5033;46.310;11.214;2022-08-21T11:04:28;1.05;;;0.40;;
9986;SDS011;5033;46.310;11.214;2022-08-21T11:07:03;0.40;;;0.40;;
9986;SDS011;5033;46.310;11.214;2022-08-21T11:09:38;0.65;;;0.30;;
9986;SDS011;5033;46.310;11.214;2022-08-21T11:12:17;0.77;;;0.50;;
9986;SDS011;5033;46.310;11.214;2022-08-21T11:17:22;0.30;;;0.30;;
9986;SDS011;5033;46.310;11.214;2022-08-21T11:19:56;1.67;;;0.30;;
9986;SDS011;5033;46.310;11.214;2022-08-21T11:22:33;0.30;;;0.30;;
9986;SDS011;5033;46.310;11.214;2022-08-21T11:25:06;0.30;;;0.30;;
9986;SDS011;5033;46.310;11.214;2022-08-21T11:27:38;0.30;;;0.30;;
9986;SDS011;5033;46.310;11.214;2022-08-21T11:30:10;0.40;;;0.40;;
9986;SDS011;5033;46.310;11.214;2022-08-21T11:32:46;0.40;;;0.40;;
9986;SDS011;5033;46.310;11.214;2022-08-21T11:35:27;0.30;;;0.30;;
9986;SDS011;5033;46.310;11.214;2022-08-21T11:38:02;0.40;;;0.30;;
9986;SDS011;5033;46.310;11.214;2022-08-21T11:40:46;0.20;;;0.20;;
9986;SDS011;5033;46.310;11.214;2022-08-21T11:43:22;0.32;;;0.32;;
9986;SDS011;5033;46.310;11.214;2022-08-21T11:46:00;0.73;;;0.50;;
9986;SDS011;5033;46.310;11.214;2022-08-21T11:48:40;0.38;;;0.38;;
9986;SDS011;5033;46.310;11.214;2022-08-21T11:51:15;0.30;;;0.30;;
9986;SDS011;5033;46.310;11.214;2022-08-21T11:53:57;0.30;;;0.30;;
9986;SDS011;5033;46.310;11.214;2022-08-21T11:56:33;0.30;;;0.30;;
9986;SDS011;5033;46.310;11.214;2022-08-21T11:59:07;0.35;;;0.20;;
9986;SDS011;5033;46.310;11.214;2022-08-21T12:01:39;0.40;;;0.40;;
9986;SDS011;5033;46.310;11.214;2022-08-21T12:04:18;0.38;;;0.38;;
9986;SDS011;5033;46.310;11.214;2022-08-21T12:06:51;0.43;;;0.30;;
9986;SDS011;5033;46.310;11.214;2022-08-21T12:09:32;0.22;;;0.22;;
9986;SDS011;5033;46.310;11.214;2022-08-21T12:12:03;0.77;;;0.40;;
9986;SDS011;5033;46.310;11.214;2022-08-21T12:14:36;0.30;;;0.30;;
9986;SDS011;5033;46.310;11.214;2022-08-21T12:17:05;0.60;;;0.30;;
9986;SDS011;5033;46.310;11.214;2022-08-21T12:19:44;0.32;;;0.32;;
9986;SDS011;5033;46.310;11.214;2022-08-21T12:22:13;0.30;;;0.30;;
9986;SDS011;5033;46.310;11.214;2022-08-21T12:24:41;0.30;;;0.30;;
9986;SDS011;5033;46.310;11.214;2022-08-21T12:27:23;0.32;;;0.32;;
9986;SDS011;5033;46.310;11.214;2022-08-21T12:29:55;0.30;;;0.30;;
9986;SDS011;5033;46.310;11.214;2022-08-21T12:32:27;0.38;;;0.38;;
9986;SDS011;5033;46.310;11.214;2022-08-21T12:34:58;0.40;;;0.40;;
9986;SDS011;5033;46.310;11.214;2022-08-21T12:37:36;0.30;;;0.30;;
9986;SDS011;5033;46.310;11.214;2022-08-21T12:40:10;0.43;;;0.30;;
9986;SDS011;5033;46.310;11.214;2022-08-21T12:42:45;0.40;;;0.30;;
9986;SDS011;5033;46.310;11.214;2022-08-21T12:45:18;0.20;;;0.20;;
9986;SDS011;5033;46.310;11.214;2022-08-21T12:47:51;0.30;;;0.30;;
9986;SDS011;5033;46.310;11.214;2022-08-21T12:50:26;0.43;;;0.40;;
9986;SDS011;5033;46.310;11.214;2022-08-21T12:53:04;0.20;;;0.20;;
9986;SDS011;5033;46.310;11.214;2022-08-21T12:55:37;0.38;;;0.38;;
9986;SDS011;5033;46.310;11.214;2022-08-21T12:58:16;2.17;;;0.40;;
9986;SDS011;5033;46.310;11.214;2022-08-21T13:00:47;0.30;;;0.30;;
9986;SDS011;5033;46.310;11.214;2022-08-21T13:03:16;0.40;;;0.40;;
9986;SDS011;5033;46.310;11.214;2022-08-21T13:05:45;0.30;;;0.30;;
9986;SDS011;5033;46.310;11.214;2022-08-21T13:08:13;0.22;;;0.22;;
9986;SDS011;5033;46.310;11.214;2022-08-21T13:10:41;0.63;;;0.40;;
9986;SDS011;5033;46.310;11.214;2022-08-21T13:13:11;0.20;;;0.20;;
9986;SDS011;5033;46.310;11.214;2022-08-21T13:15:44;0.22;;;0.22;;
9986;SDS011;5033;46.310;11.214;2022-08-21T13:18:19;0.30;;;0.30;;
9986;SDS011;5033;46.310;11.214;2022-08-21T13:20:49;0.40;;;0.40;;
9986;SDS011;5033;46.310;11.214;2022-08-21T13:23:19;0.30;;;0.30;;
9986;SDS011;5033;46.310;11.214;2022-08-21T13:25:49;0.20;;;0.20;;
9986;SDS011;5033;46.310;11.214;2022-08-21T13:28:17;0.25;;;0.25;;
9986;SDS011;5033;46.310;11.214;2022-08-21T13:30:44;0.20;;;0.20;;
9986;SDS011;5033;46.310;11.214;2022-08-21T13:33:16;0.30;;;0.30;;
9986;SDS011;5033;46.310;11.214;2022-08-21T13:36:01;0.22;;;0.22;;
9986;SDS011;5033;46.310;11.214;2022-08-21T13:38:43;0.40;;;0.40;;
9986;SDS011;5033;46.310;11.214;2022-08-21T13:41:13;0.30;;;0.30;;
9986;SDS011;5033;46.310;11.214;2022-08-21T13:43:48;0.30;;;0.30;;
9986;SDS011;5033;46.310;11.214;2022-08-21T13:46:17;0.30;;;0.30;;
9986;SDS011;5033;46.310;11.214;2022-08-21T13:48:47;0.30;;;0.30;;
9986;SDS011;5033;46.310;11.214;2022-08-21T13:51:18;0.40;;;0.40;;
9986;SDS011;5033;46.310;11.214;2022-08-21T13:53:46;0.30;;;0.30;;
9986;SDS011;5033;46.310;11.214;2022-08-21T13:56:23;0.30;;;0.30;;
9986;SDS011;5033;46.310;11.214;2022-08-21T13:58:52;0.20;;;0.20;;
9986;SDS011;5033;46.310;11.214;2022-08-21T14:01:22;1.45;;;0.30;;
9986;SDS011;5033;46.310;11.214;2022-08-21T14:03:53;0.35;;;0.35;;
9986;SDS011;5033;46.310;11.214;2022-08-21T14:06:33;0.30;;;0.30;;
9986;SDS011;5033;46.310;11.214;2022-08-21T14:09:07;0.20;;;0.20;;
9986;SDS011;5033;46.310;11.214;2022-08-21T14:11:40;0.20;;;0.20;;
9986;SDS011;5033;46.310;11.214;2022-08-21T14:14:15;0.30;;;0.30;;
9986;SDS011;5033;46.310;11.214;2022-08-21T14:16:52;0.30;;;0.30;;
9986;SDS011;5033;46.310;11.214;2022-08-21T14:19:22;0.30;;;0.30;;
9986;SDS011;5033;46.310;11.214;2022-08-21T14:21:51;0.30;;;0.30;;
9986;SDS011;5033;46.310;11.214;2022-08-21T14:24:27;0.38;;;0.30;;
9986;SDS011;5033;46.310;11.214;2022-08-21T14:26:56;0.30;;;0.30;;
9986;SDS011;5033;46.310;11.214;2022-08-21T14:29:31;0.32;;;0.30;;
9986;SDS011;5033;46.310;11.214;2022-08-21T14:32:08;0.30;;;0.30;;
9986;SDS011;5033;46.310;11.214;2022-08-21T14:34:38;0.30;;;0.30;;
9986;SDS011;5033;46.310;11.214;2022-08-21T14:37:07;0.20;;;0.20;;
9986;SDS011;5033;46.310;11.214;2022-08-21T14:39:34;0.25;;;0.25;;
9986;SDS011;5033;46.310;11.214;2022-08-21T14:42:01;0.30;;;0.30;;
9986;SDS011;5033;46.310;11.214;2022-08-21T14:44:28;0.20;;;0.20;;
9986;SDS011;5033;46.310;11.214;2022-08-21T14:46:57;0.32;;;0.32;;
9986;SDS011;5033;46.310;11.214;2022-08-21T14:49:25;0.38;;;0.38;;
9986;SDS011;5033;46.310;11.214;2022-08-21T14:51:53;0.30;;;0.30;;
9986;SDS011;5033;46.310;11.214;2022-08-21T14:54:23;0.30;;;0.30;;
9986;SDS011;5033;46.310;11.214;2022-08-21T14:56:51;0.22;;;0.22;;
9986;SDS011;5033;46.310;11.214;2022-08-21T14:59:20;0.30;;;0.30;;
9986;SDS011;5033;46.310;11.214;2022-08-21T15:01:48;0.40;;;0.30;;
9986;SDS011;5033;46.310;11.214;2022-08-21T15:04:17;0.38;;;0.38;;
9986;SDS011;5033;46.310;11.214;2022-08-21T15:06:44;0.40;;;0.40;;
9986;SDS011;5033;46.310;11.214;2022-08-21T15:09:11;0.30;;;0.30;;
9986;SDS011;5033;46.310;11.214;2022-08-21T15:11:40;0.30;;;0.30;;
9986;SDS011;5033;46.310;11.214;2022-08-21T15:14:13;0.30;;;0.30;;
9986;SDS011;5033;46.310;11.214;2022-08-21T15:16:48;0.30;;;0.30;;
9986;SDS011;5033;46.310;11.214;2022-08-21T15:19:16;0.43;;;0.43;;
9986;SDS011;5033;46.310;11.214;2022-08-21T15:21:44;1.95;;;0.50;;
9986;SDS011;5033;46.310;11.214;2022-08-21T15:24:13;0.30;;;0.30;;